sensor_id;sensor_type;location;lat;lon;timestamp;P1;durP1;ratioP1;P2;durP2;ratioP2
35276;SDS011;21401;50.878;8.050;2022-11-18T00:01:20;21.73;;;7.55;;
35276;SDS011;21401;50.878;8.050;2022-11-18T00:03:47;16.70;;;8.40;;
35276;SDS011;21401;50.878;8.050;2022-11-18T00:06:17;20.95;;;9.63;;
35276;SDS011;21401;50.878;8.050;2022-11-18T00:08:45;20.92;;;9.57;;
35276;SDS011;21401;50.878;8.050;2022-11-18T01:54:41;7.32;;;2.70;;
35276;SDS011;21401;50.878;8.050;2022-11-18T03:18:54;17.08;;;9.40;;
35276;SDS011;21401;50.878;8.050;2022-11-18T03:24:12;12.82;;;7.78;;
35276;SDS011;21401;50.878;8.050;2022-11-18T03:26:45;15.40;;;7.63;;
35276;SDS011;21401;50.878;8.050;2022-11-18T03:29:25;12.85;;;7.65;;
35276;SDS011;21401;50.878;8.050;2022-11-18T03:31:57;14.98;;;7.05;;
35276;SDS011;21401;50.878;8.050;2022-11-18T03:34:34;14.02;;;7.75;;
35276;SDS011;21401;50.878;8.050;2022-11-18T03:37:07;10.82;;;6.95;;
35276;SDS011;21401;50.878;8.050;2022-11-18T03:39:36;12.50;;;7.28;;
35276;SDS011;21401;50.878;8.050;2022-11-18T03:44:52;11.50;;;6.03;;
35276;SDS011;21401;50.878;8.050;2022-11-18T03:47:28;8.85;;;5.50;;
35276;SDS011;21401;50.878;8.050;2022-11-18T03:50:20;8.23;;;4.43;;
35276;SDS011;21401;50.878;8.050;2022-11-18T03:52:49;9.38;;;4.60;;
35276;SDS011;21401;50.878;8.050;2022-11-18T03:55:18;10.25;;;4.90;;
35276;SDS011;21401;50.878;8.050;2022-11-18T03:57:55;9.02;;;4.85;;
35276;SDS011;21401;50.878;8.050;2022-11-18T04:00:28;11.73;;;5.85;;
35276;SDS011;21401;50.878;8.050;2022-11-18T04:03:00;10.95;;;5.55;;
35276;SDS011;21401;50.878;8.050;2022-11-18T04:05:26;9.27;;;5.72;;
35276;SDS011;21401;50.878;8.050;2022-11-18T04:08:00;10.25;;;6.03;;
35276;SDS011;21401;50.878;8.050;2022-11-18T04:10:33;11.23;;;6.40;;
35276;SDS011;21401;50.878;8.050;2022-11-18T04:15:28;10.60;;;6.35;;
35276;SDS011;21401;50.878;8.050;2022-11-18T04:17:55;10.82;;;5.70;;
35276;SDS011;21401;50.878;8.050;2022-11-18T04:20:21;9.32;;;5.85;;
35276;SDS011;21401;50.878;8.050;2022-11-18T04:22:47;12.73;;;6.43;;
35276;SDS011;21401;50.878;8.050;2022-11-18T04:25:15;13.25;;;6.15;;
35276;SDS011;21401;50.878;8.050;2022-11-18T04:27:41;10.85;;;5.55;;
35276;SDS011;21401;50.878;8.050;2022-11-18T04:30:07;12.25;;;6.18;;
35276;SDS011;21401;50.878;8.050;2022-11-18T04:32:34;9.50;;;6.05;;
35276;SDS011;21401;50.878;8.050;2022-11-18T04:35:02;11.60;;;6.38;;
35276;SDS011;21401;50.878;8.050;2022-11-18T04:37:27;13.90;;;6.82;;
35276;SDS011;21401;50.878;8.050;2022-11-18T04:39:53;10.20;;;6.38;;
35276;SDS011;21401;50.878;8.050;2022-11-18T04:42:19;11.07;;;6.40;;
35276;SDS011;21401;50.878;8.050;2022-11-18T04:44:44;10.65;;;5.55;;
35276;SDS011;21401;50.878;8.050;2022-11-18T04:47:10;13.40;;;6.47;;
35276;SDS011;21401;50.878;8.050;2022-11-18T04:49:35;11.27;;;5.70;;
35276;SDS011;21401;50.878;8.050;2022-11-18T04:52:01;14.15;;;6.18;;
35276;SDS011;21401;50.878;8.050;2022-11-18T04:54:30;15.02;;;6.05;;
35276;SDS011;21401;50.878;8.050;2022-11-18T04:56:55;10.70;;;5.68;;
35276;SDS011;21401;50.878;8.050;2022-11-18T04:59:25;10.48;;;5.65;;
35276;SDS011;21401;50.878;8.050;2022-11-18T05:01:52;14.70;;;6.13;;
35276;SDS011;21401;50.878;8.050;2022-11-18T05:04:25;13.77;;;5.97;;
35276;SDS011;21401;50.878;8.050;2022-11-18T05:06:54;8.80;;;5.18;;
35276;SDS011;21401;50.878;8.050;2022-11-18T05:09:22;10.85;;;5.32;;
35276;SDS011;21401;50.878;8.050;2022-11-18T05:11:49;14.77;;;6.03;;
35276;SDS011;21401;50.878;8.050;2022-11-18T05:14:36;11.30;;;5.32;;
35276;SDS011;21401;50.878;8.050;2022-11-18T05:17:03;9.25;;;5.90;;
35276;SDS011;21401;50.878;8.050;2022-11-18T05:19:30;9.18;;;5.65;;
35276;SDS011;21401;50.878;8.050;2022-11-18T05:21:58;11.55;;;5.82;;
35276;SDS011;21401;50.878;8.050;2022-11-18T05:24:24;14.88;;;6.78;;
35276;SDS011;21401;50.878;8.050;2022-11-18T05:26:50;18.08;;;7.43;;
35276;SDS011;21401;50.878;8.050;2022-11-18T05:29:17;16.52;;;8.10;;
35276;SDS011;21401;50.878;8.050;2022-11-18T05:31:44;19.17;;;7.68;;
35276;SDS011;21401;50.878;8.050;2022-11-18T05:34:10;14.38;;;7.05;;
35276;SDS011;21401;50.878;8.050;2022-11-18T05:36:36;12.77;;;6.82;;
35276;SDS011;21401;50.878;8.050;2022-11-18T05:39:03;13.80;;;7.22;;
35276;SDS011;21401;50.878;8.050;2022-11-18T05:41:28;11.05;;;6.72;;
35276;SDS011;21401;50.878;8.050;2022-11-18T05:44:13;12.20;;;6.20;;
35276;SDS011;21401;50.878;8.050;2022-11-18T05:46:39;17.35;;;6.90;;
35276;SDS011;21401;50.878;8.050;2022-11-18T05:49:08;9.32;;;6.65;;
35276;SDS011;21401;50.878;8.050;2022-11-18T05:51:34;12.75;;;7.15;;
35276;SDS011;21401;50.878;8.050;2022-11-18T05:54:00;12.25;;;7.13;;
35276;SDS011;21401;50.878;8.050;2022-11-18T05:56:35;14.07;;;6.38;;
35276;SDS011;21401;50.878;8.050;2022-11-18T05:59:03;13.98;;;7.32;;
35276;SDS011;21401;50.878;8.050;2022-11-18T06:01:35;15.63;;;7.95;;
35276;SDS011;21401;50.878;8.050;2022-11-18T06:04:08;15.20;;;7.50;;
35276;SDS011;21401;50.878;8.050;2022-11-18T06:06:39;15.95;;;7.72;;
35276;SDS011;21401;50.878;8.050;2022-11-18T06:09:10;14.68;;;7.95;;
35276;SDS011;21401;50.878;8.050;2022-11-18T06:11:44;17.60;;;9.00;;
35276;SDS011;21401;50.878;8.050;2022-11-18T06:16:51;12.85;;;7.30;;
35276;SDS011;21401;50.878;8.050;2022-11-18T06:19:21;13.52;;;7.63;;
35276;SDS011;21401;50.878;8.050;2022-11-18T06:21:47;12.95;;;7.95;;
35276;SDS011;21401;50.878;8.050;2022-11-18T06:24:15;19.33;;;8.77;;
35276;SDS011;21401;50.878;8.050;2022-11-18T06:26:44;17.55;;;9.25;;
35276;SDS011;21401;50.878;8.050;2022-11-18T06:29:13;22.98;;;9.77;;
35276;SDS011;21401;50.878;8.050;2022-11-18T06:31:41;19.35;;;8.93;;
35276;SDS011;21401;50.878;8.050;2022-11-18T06:34:06;14.60;;;8.15;;
35276;SDS011;21401;50.878;8.050;2022-11-18T06:36:32;24.67;;;9.38;;
35276;SDS011;21401;50.878;8.050;2022-11-18T06:39:04;14.77;;;8.88;;
35276;SDS011;21401;50.878;8.050;2022-11-18T06:41:31;21.30;;;9.73;;
35276;SDS011;21401;50.878;8.050;2022-11-18T06:43:57;14.70;;;7.97;;
35276;SDS011;21401;50.878;8.050;2022-11-18T06:46:22;16.60;;;8.65;;
35276;SDS011;21401;50.878;8.050;2022-11-18T06:49:06;16.15;;;9.57;;
35276;SDS011;21401;50.878;8.050;2022-11-18T06:51:32;20.75;;;11.35;;
35276;SDS011;21401;50.878;8.050;2022-11-18T06:53:58;26.40;;;13.02;;
35276;SDS011;21401;50.878;8.050;2022-11-18T06:56:26;16.60;;;9.27;;
35276;SDS011;21401;50.878;8.050;2022-11-18T06:58:57;19.02;;;10.90;;
35276;SDS011;21401;50.878;8.050;2022-11-18T07:01:24;21.02;;;13.00;;
35276;SDS011;21401;50.878;8.050;2022-11-18T07:03:51;21.95;;;13.40;;
35276;SDS011;21401;50.878;8.050;2022-11-18T07:06:21;19.98;;;10.32;;
35276;SDS011;21401;50.878;8.050;2022-11-18T07:08:48;16.42;;;9.07;;
35276;SDS011;21401;50.878;8.050;2022-11-18T07:11:19;18.98;;;9.25;;
35276;SDS011;21401;50.878;8.050;2022-11-18T07:13:46;20.88;;;9.48;;
35276;SDS011;21401;50.878;8.050;2022-11-18T07:16:13;17.50;;;8.85;;
35276;SDS011;21401;50.878;8.050;2022-11-18T07:18:45;18.58;;;9.45;;
35276;SDS011;21401;50.878;8.050;2022-11-18T07:21:18;19.05;;;10.20;;
35276;SDS011;21401;50.878;8.050;2022-11-18T07:23:45;20.00;;;11.25;;
35276;SDS011;21401;50.878;8.050;2022-11-18T07:26:11;20.10;;;11.95;;
35276;SDS011;21401;50.878;8.050;2022-11-18T07:28:38;19.02;;;9.93;;
35276;SDS011;21401;50.878;8.050;2022-11-18T07:31:10;18.52;;;10.43;;
35276;SDS011;21401;50.878;8.050;2022-11-18T07:33:37;19.65;;;11.57;;
35276;SDS011;21401;50.878;8.050;2022-11-18T07:36:09;22.13;;;10.98;;
35276;SDS011;21401;50.878;8.050;2022-11-18T07:38:36;15.05;;;9.95;;
35276;SDS011;21401;50.878;8.050;2022-11-18T07:43:35;16.50;;;9.75;;
35276;SDS011;21401;50.878;8.050;2022-11-18T07:46:11;14.63;;;9.73;;
35276;SDS011;21401;50.878;8.050;2022-11-18T07:48:37;14.05;;;8.70;;
35276;SDS011;21401;50.878;8.050;2022-11-18T07:51:03;16.30;;;8.70;;
35276;SDS011;21401;50.878;8.050;2022-11-18T07:53:29;16.38;;;8.77;;
35276;SDS011;21401;50.878;8.050;2022-11-18T07:55:56;13.77;;;8.88;;
35276;SDS011;21401;50.878;8.050;2022-11-18T07:58:22;14.07;;;9.35;;
35276;SDS011;21401;50.878;8.050;2022-11-18T08:00:47;16.23;;;9.25;;
35276;SDS011;21401;50.878;8.050;2022-11-18T08:03:13;20.17;;;9.55;;
35276;SDS011;21401;50.878;8.050;2022-11-18T08:05:38;27.55;;;10.13;;
35276;SDS011;21401;50.878;8.050;2022-11-18T08:08:06;24.00;;;9.45;;
35276;SDS011;21401;50.878;8.050;2022-11-18T08:10:32;17.15;;;7.90;;
35276;SDS011;21401;50.878;8.050;2022-11-18T08:13:01;19.15;;;9.40;;
35276;SDS011;21401;50.878;8.050;2022-11-18T08:15:27;20.92;;;8.57;;
35276;SDS011;21401;50.878;8.050;2022-11-18T08:17:55;14.85;;;8.75;;
35276;SDS011;21401;50.878;8.050;2022-11-18T08:20:21;22.38;;;9.23;;
35276;SDS011;21401;50.878;8.050;2022-11-18T08:22:51;14.48;;;8.93;;
35276;SDS011;21401;50.878;8.050;2022-11-18T08:25:16;12.50;;;8.40;;
35276;SDS011;21401;50.878;8.050;2022-11-18T08:27:42;19.55;;;8.60;;
35276;SDS011;21401;50.878;8.050;2022-11-18T08:30:08;22.45;;;9.77;;
35276;SDS011;21401;50.878;8.050;2022-11-18T08:32:44;15.90;;;8.98;;
35276;SDS011;21401;50.878;8.050;2022-11-18T08:35:10;16.83;;;9.18;;
35276;SDS011;21401;50.878;8.050;2022-11-18T08:37:36;19.13;;;10.05;;
35276;SDS011;21401;50.878;8.050;2022-11-18T08:40:02;19.20;;;10.27;;
35276;SDS011;21401;50.878;8.050;2022-11-18T08:42:34;15.75;;;9.70;;
35276;SDS011;21401;50.878;8.050;2022-11-18T08:45:04;17.38;;;9.70;;
35276;SDS011;21401;50.878;8.050;2022-11-18T08:47:32;17.83;;;9.68;;
35276;SDS011;21401;50.878;8.050;2022-11-18T08:49:58;21.80;;;12.23;;
35276;SDS011;21401;50.878;8.050;2022-11-18T08:52:24;24.23;;;11.65;;
35276;SDS011;21401;50.878;8.050;2022-11-18T08:54:51;20.00;;;10.88;;
35276;SDS011;21401;50.878;8.050;2022-11-18T08:57:17;21.77;;;11.48;;
35276;SDS011;21401;50.878;8.050;2022-11-18T08:59:43;25.52;;;12.05;;
35276;SDS011;21401;50.878;8.050;2022-11-18T09:02:12;24.23;;;11.90;;
35276;SDS011;21401;50.878;8.050;2022-11-18T09:04:41;21.92;;;11.73;;
35276;SDS011;21401;50.878;8.050;2022-11-18T09:07:09;19.00;;;11.48;;
35276;SDS011;21401;50.878;8.050;2022-11-18T09:09:34;20.73;;;11.38;;
35276;SDS011;21401;50.878;8.050;2022-11-18T09:12:00;18.38;;;11.70;;
35276;SDS011;21401;50.878;8.050;2022-11-18T09:14:26;16.15;;;9.95;;
35276;SDS011;21401;50.878;8.050;2022-11-18T09:16:52;21.63;;;11.45;;
35276;SDS011;21401;50.878;8.050;2022-11-18T09:19:17;20.17;;;11.30;;
35276;SDS011;21401;50.878;8.050;2022-11-18T09:21:43;19.92;;;11.60;;
35276;SDS011;21401;50.878;8.050;2022-11-18T09:24:08;19.20;;;10.98;;
35276;SDS011;21401;50.878;8.050;2022-11-18T09:26:35;26.52;;;12.73;;
35276;SDS011;21401;50.878;8.050;2022-11-18T09:29:01;25.23;;;13.20;;
35276;SDS011;21401;50.878;8.050;2022-11-18T09:31:28;20.95;;;12.13;;
35276;SDS011;21401;50.878;8.050;2022-11-18T09:33:54;21.73;;;10.95;;
35276;SDS011;21401;50.878;8.050;2022-11-18T09:36:21;19.30;;;11.40;;
35276;SDS011;21401;50.878;8.050;2022-11-18T09:38:48;18.65;;;9.55;;
35276;SDS011;21401;50.878;8.050;2022-11-18T09:47:13;20.55;;;11.57;;
35276;SDS011;21401;50.878;8.050;2022-11-18T09:49:55;23.38;;;13.13;;
35276;SDS011;21401;50.878;8.050;2022-11-18T09:52:30;20.50;;;10.50;;
35276;SDS011;21401;50.878;8.050;2022-11-18T09:55:16;16.05;;;9.95;;
35276;SDS011;21401;50.878;8.050;2022-11-18T09:57:44;16.85;;;9.63;;
35276;SDS011;21401;50.878;8.050;2022-11-18T10:00:15;22.77;;;11.23;;
35276;SDS011;21401;50.878;8.050;2022-11-18T10:05:30;28.15;;;12.88;;
35276;SDS011;21401;50.878;8.050;2022-11-18T10:10:50;20.85;;;9.48;;
35276;SDS011;21401;50.878;8.050;2022-11-18T10:21:31;14.48;;;8.98;;
35276;SDS011;21401;50.878;8.050;2022-11-18T10:24:19;21.58;;;9.00;;
35276;SDS011;21401;50.878;8.050;2022-11-18T10:26:49;25.90;;;10.30;;
35276;SDS011;21401;50.878;8.050;2022-11-18T10:29:20;20.48;;;11.00;;
35276;SDS011;21401;50.878;8.050;2022-11-18T10:31:51;15.55;;;9.25;;
35276;SDS011;21401;50.878;8.050;2022-11-18T10:34:20;13.90;;;7.75;;
35276;SDS011;21401;50.878;8.050;2022-11-18T10:37:05;14.18;;;7.43;;
35276;SDS011;21401;50.878;8.050;2022-11-18T10:39:48;13.73;;;7.88;;
35276;SDS011;21401;50.878;8.050;2022-11-18T10:42:18;15.18;;;7.65;;
35276;SDS011;21401;50.878;8.050;2022-11-18T10:44:53;15.75;;;7.90;;
35276;SDS011;21401;50.878;8.050;2022-11-18T10:47:28;15.88;;;7.68;;
35276;SDS011;21401;50.878;8.050;2022-11-18T10:49:56;19.98;;;8.43;;
35276;SDS011;21401;50.878;8.050;2022-11-18T10:52:24;17.98;;;9.65;;
35276;SDS011;21401;50.878;8.050;2022-11-18T10:55:07;17.67;;;9.00;;
35276;SDS011;21401;50.878;8.050;2022-11-18T10:57:34;20.92;;;8.60;;
35276;SDS011;21401;50.878;8.050;2022-11-18T11:00:30;14.77;;;7.90;;
35276;SDS011;21401;50.878;8.050;2022-11-18T11:02:58;13.80;;;7.45;;
35276;SDS011;21401;50.878;8.050;2022-11-18T11:05:38;13.50;;;6.55;;
35276;SDS011;21401;50.878;8.050;2022-11-18T11:08:05;14.30;;;7.53;;
35276;SDS011;21401;50.878;8.050;2022-11-18T11:10:53;11.30;;;6.35;;
35276;SDS011;21401;50.878;8.050;2022-11-18T11:13:29;12.68;;;7.28;;
35276;SDS011;21401;50.878;8.050;2022-11-18T11:15:57;9.27;;;5.03;;
35276;SDS011;21401;50.878;8.050;2022-11-18T11:18:30;5.25;;;3.72;;
35276;SDS011;21401;50.878;8.050;2022-11-18T11:21:10;8.13;;;4.35;;
35276;SDS011;21401;50.878;8.050;2022-11-18T11:23:43;14.13;;;5.72;;
35276;SDS011;21401;50.878;8.050;2022-11-18T11:37:28;6.85;;;3.88;;
35276;SDS011;21401;50.878;8.050;2022-11-18T11:40:19;7.55;;;3.30;;
35276;SDS011;21401;50.878;8.050;2022-11-18T11:48:08;6.53;;;4.28;;
35276;SDS011;21401;50.878;8.050;2022-11-18T11:51:10;10.85;;;4.35;;
35276;SDS011;21401;50.878;8.050;2022-11-18T11:53:46;11.02;;;4.85;;
35276;SDS011;21401;50.878;8.050;2022-11-18T11:56:33;13.15;;;6.57;;
35276;SDS011;21401;50.878;8.050;2022-11-18T11:59:13;12.18;;;7.47;;
35276;SDS011;21401;50.878;8.050;2022-11-18T12:02:11;11.23;;;6.07;;
35276;SDS011;21401;50.878;8.050;2022-11-18T12:05:02;8.93;;;6.85;;
35276;SDS011;21401;50.878;8.050;2022-11-18T12:07:36;15.77;;;7.75;;
35276;SDS011;21401;50.878;8.050;2022-11-18T12:18:41;8.52;;;6.43;;
35276;SDS011;21401;50.878;8.050;2022-11-18T12:24:25;6.45;;;4.95;;
35276;SDS011;21401;50.878;8.050;2022-11-18T12:32:01;8.85;;;5.80;;
35276;SDS011;21401;50.878;8.050;2022-11-18T12:39:55;7.25;;;5.82;;
35276;SDS011;21401;50.878;8.050;2022-11-18T12:50:56;11.75;;;5.93;;
35276;SDS011;21401;50.878;8.050;2022-11-18T12:53:38;13.27;;;9.23;;
35276;SDS011;21401;50.878;8.050;2022-11-18T12:58:35;15.30;;;9.35;;
35276;SDS011;21401;50.878;8.050;2022-11-18T13:01:05;14.32;;;7.43;;
35276;SDS011;21401;50.878;8.050;2022-11-18T13:03:33;10.13;;;6.60;;
35276;SDS011;21401;50.878;8.050;2022-11-18T13:32:57;7.90;;;3.50;;
35276;SDS011;21401;50.878;8.050;2022-11-18T13:44:58;12.82;;;4.47;;
35276;SDS011;21401;50.878;8.050;2022-11-18T13:53:36;9.13;;;3.10;;
35276;SDS011;21401;50.878;8.050;2022-11-18T14:06:35;11.65;;;4.32;;
35276;SDS011;21401;50.878;8.050;2022-11-18T14:13:18;13.30;;;5.00;;
35276;SDS011;21401;50.878;8.050;2022-11-18T14:15:44;10.52;;;4.45;;
35276;SDS011;21401;50.878;8.050;2022-11-18T14:18:27;10.10;;;5.53;;
35276;SDS011;21401;50.878;8.050;2022-11-18T14:20:57;8.57;;;4.55;;
35276;SDS011;21401;50.878;8.050;2022-11-18T14:23:33;12.07;;;5.22;;
35276;SDS011;21401;50.878;8.050;2022-11-18T14:26:02;11.48;;;5.53;;
35276;SDS011;21401;50.878;8.050;2022-11-18T14:28:30;17.60;;;6.35;;
35276;SDS011;21401;50.878;8.050;2022-11-18T14:33:41;13.40;;;6.28;;
35276;SDS011;21401;50.878;8.050;2022-11-18T14:36:27;15.65;;;7.97;;
35276;SDS011;21401;50.878;8.050;2022-11-18T14:38:55;15.88;;;6.65;;
35276;SDS011;21401;50.878;8.050;2022-11-18T14:41:24;12.82;;;6.18;;
35276;SDS011;21401;50.878;8.050;2022-11-18T14:44:09;12.70;;;6.68;;
35276;SDS011;21401;50.878;8.050;2022-11-18T14:46:37;15.32;;;6.35;;
35276;SDS011;21401;50.878;8.050;2022-11-18T14:49:04;14.95;;;6.40;;
35276;SDS011;21401;50.878;8.050;2022-11-18T14:51:35;13.52;;;8.23;;
35276;SDS011;21401;50.878;8.050;2022-11-18T14:54:01;18.42;;;9.10;;
35276;SDS011;21401;50.878;8.050;2022-11-18T14:56:29;19.90;;;8.32;;
35276;SDS011;21401;50.878;8.050;2022-11-18T14:58:56;12.82;;;7.75;;
35276;SDS011;21401;50.878;8.050;2022-11-18T15:01:23;14.90;;;6.55;;
35276;SDS011;21401;50.878;8.050;2022-11-18T15:03:53;13.55;;;7.18;;
35276;SDS011;21401;50.878;8.050;2022-11-18T15:06:20;13.30;;;7.50;;
35276;SDS011;21401;50.878;8.050;2022-11-18T15:08:47;15.38;;;8.40;;
35276;SDS011;21401;50.878;8.050;2022-11-18T15:11:20;20.33;;;8.27;;
35276;SDS011;21401;50.878;8.050;2022-11-18T15:13:47;23.33;;;8.55;;
35276;SDS011;21401;50.878;8.050;2022-11-18T15:16:18;14.10;;;9.10;;
35276;SDS011;21401;50.878;8.050;2022-11-18T15:18:50;16.67;;;9.35;;
35276;SDS011;21401;50.878;8.050;2022-11-18T15:21:17;18.77;;;10.60;;
35276;SDS011;21401;50.878;8.050;2022-11-18T15:23:45;13.05;;;8.93;;
35276;SDS011;21401;50.878;8.050;2022-11-18T15:28:49;15.10;;;9.32;;
35276;SDS011;21401;50.878;8.050;2022-11-18T15:31:18;15.18;;;9.50;;
35276;SDS011;21401;50.878;8.050;2022-11-18T15:33:46;16.33;;;9.32;;
35276;SDS011;21401;50.878;8.050;2022-11-18T15:36:22;16.75;;;10.10;;
35276;SDS011;21401;50.878;8.050;2022-11-18T15:38:50;15.20;;;10.27;;
35276;SDS011;21401;50.878;8.050;2022-11-18T15:43:50;16.67;;;12.32;;
35276;SDS011;21401;50.878;8.050;2022-11-18T15:46:18;31.73;;;13.05;;
35276;SDS011;21401;50.878;8.050;2022-11-18T15:48:49;21.00;;;13.18;;
35276;SDS011;21401;50.878;8.050;2022-11-18T15:51:15;20.67;;;13.45;;
35276;SDS011;21401;50.878;8.050;2022-11-18T15:53:41;17.05;;;12.02;;
35276;SDS011;21401;50.878;8.050;2022-11-18T15:58:44;18.05;;;12.13;;
35276;SDS011;21401;50.878;8.050;2022-11-18T16:01:15;18.38;;;12.65;;
35276;SDS011;21401;50.878;8.050;2022-11-18T16:03:42;24.73;;;13.93;;
35276;SDS011;21401;50.878;8.050;2022-11-18T16:06:09;21.73;;;13.02;;
35276;SDS011;21401;50.878;8.050;2022-11-18T16:08:35;22.13;;;12.73;;
35276;SDS011;21401;50.878;8.050;2022-11-18T16:11:01;20.85;;;12.45;;
35276;SDS011;21401;50.878;8.050;2022-11-18T16:14:11;24.65;;;12.27;;
35276;SDS011;21401;50.878;8.050;2022-11-18T16:16:49;34.03;;;18.02;;
35276;SDS011;21401;50.878;8.050;2022-11-18T16:19:17;32.15;;;19.92;;
35276;SDS011;21401;50.878;8.050;2022-11-18T16:21:51;17.13;;;11.25;;
35276;SDS011;21401;50.878;8.050;2022-11-18T16:24:23;20.10;;;12.07;;
35276;SDS011;21401;50.878;8.050;2022-11-18T16:26:53;26.15;;;13.13;;
35276;SDS011;21401;50.878;8.050;2022-11-18T16:29:19;24.83;;;13.48;;
35276;SDS011;21401;50.878;8.050;2022-11-18T16:31:56;22.50;;;12.45;;
35276;SDS011;21401;50.878;8.050;2022-11-18T16:34:36;23.70;;;11.32;;
35276;SDS011;21401;50.878;8.050;2022-11-18T16:37:06;23.48;;;11.02;;
35276;SDS011;21401;50.878;8.050;2022-11-18T16:39:32;17.63;;;11.20;;
35276;SDS011;21401;50.878;8.050;2022-11-18T16:42:00;22.38;;;11.93;;
35276;SDS011;21401;50.878;8.050;2022-11-18T16:44:26;17.38;;;10.07;;
35276;SDS011;21401;50.878;8.050;2022-11-18T16:46:57;18.50;;;9.48;;
35276;SDS011;21401;50.878;8.050;2022-11-18T16:49:26;19.35;;;10.50;;
35276;SDS011;21401;50.878;8.050;2022-11-18T16:51:52;22.10;;;12.32;;
35276;SDS011;21401;50.878;8.050;2022-11-18T16:54:28;21.65;;;11.95;;
35276;SDS011;21401;50.878;8.050;2022-11-18T16:57:07;15.27;;;10.07;;
35276;SDS011;21401;50.878;8.050;2022-11-18T16:59:33;15.90;;;9.45;;
35276;SDS011;21401;50.878;8.050;2022-11-18T17:01:59;15.57;;;9.35;;
35276;SDS011;21401;50.878;8.050;2022-11-18T17:04:26;19.05;;;10.60;;
35276;SDS011;21401;50.878;8.050;2022-11-18T17:06:54;16.45;;;9.77;;
35276;SDS011;21401;50.878;8.050;2022-11-18T17:09:20;18.98;;;10.40;;
35276;SDS011;21401;50.878;8.050;2022-11-18T17:12:00;24.70;;;12.73;;
35276;SDS011;21401;50.878;8.050;2022-11-18T17:14:37;29.42;;;15.23;;
35276;SDS011;21401;50.878;8.050;2022-11-18T17:17:12;24.55;;;14.20;;
35276;SDS011;21401;50.878;8.050;2022-11-18T17:19:43;17.20;;;11.77;;
35276;SDS011;21401;50.878;8.050;2022-11-18T17:22:25;15.00;;;10.40;;
35276;SDS011;21401;50.878;8.050;2022-11-18T17:25:12;22.55;;;11.38;;
35276;SDS011;21401;50.878;8.050;2022-11-18T17:28:59;27.00;;;14.98;;
35276;SDS011;21401;50.878;8.050;2022-11-18T17:32:09;82.25;;;29.85;;
35276;SDS011;21401;50.878;8.050;2022-11-18T17:34:55;27.70;;;18.95;;
35276;SDS011;21401;50.878;8.050;2022-11-18T17:37:21;30.00;;;16.95;;
35276;SDS011;21401;50.878;8.050;2022-11-18T17:39:48;27.48;;;16.77;;
35276;SDS011;21401;50.878;8.050;2022-11-18T17:42:14;31.50;;;18.25;;
35276;SDS011;21401;50.878;8.050;2022-11-18T17:44:43;43.35;;;19.05;;
35276;SDS011;21401;50.878;8.050;2022-11-18T17:47:11;36.80;;;17.95;;
35276;SDS011;21401;50.878;8.050;2022-11-18T17:49:49;25.15;;;16.08;;
35276;SDS011;21401;50.878;8.050;2022-11-18T17:52:21;23.52;;;14.75;;
35276;SDS011;21401;50.878;8.050;2022-11-18T17:58:28;26.08;;;15.32;;
35276;SDS011;21401;50.878;8.050;2022-11-18T18:01:11;27.42;;;17.48;;
35276;SDS011;21401;50.878;8.050;2022-11-18T18:03:51;22.67;;;15.15;;
35276;SDS011;21401;50.878;8.050;2022-11-18T18:06:42;30.88;;;18.60;;
35276;SDS011;21401;50.878;8.050;2022-11-18T18:09:31;33.67;;;18.02;;
35276;SDS011;21401;50.878;8.050;2022-11-18T18:12:05;28.02;;;19.15;;
35276;SDS011;21401;50.878;8.050;2022-11-18T18:15:09;30.90;;;18.35;;
35276;SDS011;21401;50.878;8.050;2022-11-18T18:17:38;31.05;;;18.10;;
35276;SDS011;21401;50.878;8.050;2022-11-18T18:20:34;34.00;;;18.33;;
35276;SDS011;21401;50.878;8.050;2022-11-18T18:22:59;30.35;;;18.00;;
35276;SDS011;21401;50.878;8.050;2022-11-18T18:25:25;46.42;;;21.90;;
35276;SDS011;21401;50.878;8.050;2022-11-18T18:28:13;36.00;;;19.58;;
35276;SDS011;21401;50.878;8.050;2022-11-18T18:31:48;41.92;;;24.38;;
35276;SDS011;21401;50.878;8.050;2022-11-18T18:34:54;24.27;;;17.10;;
35276;SDS011;21401;50.878;8.050;2022-11-18T18:37:19;26.77;;;17.00;;
35276;SDS011;21401;50.878;8.050;2022-11-18T18:39:45;25.90;;;18.10;;
35276;SDS011;21401;50.878;8.050;2022-11-18T18:42:17;28.60;;;19.15;;
35276;SDS011;21401;50.878;8.050;2022-11-18T18:45:07;39.55;;;25.27;;
35276;SDS011;21401;50.878;8.050;2022-11-18T18:47:54;36.58;;;21.02;;
35276;SDS011;21401;50.878;8.050;2022-11-18T18:51:05;29.00;;;19.33;;
35276;SDS011;21401;50.878;8.050;2022-11-18T18:53:34;28.33;;;18.00;;
35276;SDS011;21401;50.878;8.050;2022-11-18T18:56:00;34.17;;;18.15;;
35276;SDS011;21401;50.878;8.050;2022-11-18T18:58:26;33.63;;;23.67;;
35276;SDS011;21401;50.878;8.050;2022-11-18T19:01:02;26.35;;;19.08;;
35276;SDS011;21401;50.878;8.050;2022-11-18T19:03:29;32.63;;;19.40;;
35276;SDS011;21401;50.878;8.050;2022-11-18T19:05:59;29.65;;;18.67;;
35276;SDS011;21401;50.878;8.050;2022-11-18T19:08:54;34.92;;;22.92;;
35276;SDS011;21401;50.878;8.050;2022-11-18T19:11:21;35.50;;;21.98;;
35276;SDS011;21401;50.878;8.050;2022-11-18T19:14:07;33.67;;;21.08;;
35276;SDS011;21401;50.878;8.050;2022-11-18T19:16:34;41.95;;;23.50;;
35276;SDS011;21401;50.878;8.050;2022-11-18T19:19:14;37.75;;;21.92;;
35276;SDS011;21401;50.878;8.050;2022-11-18T19:22:13;37.05;;;23.88;;
35276;SDS011;21401;50.878;8.050;2022-11-18T19:24:40;34.42;;;22.77;;
35276;SDS011;21401;50.878;8.050;2022-11-18T19:27:42;30.80;;;19.55;;
35276;SDS011;21401;50.878;8.050;2022-11-18T19:30:16;34.30;;;20.75;;
35276;SDS011;21401;50.878;8.050;2022-11-18T19:32:56;37.38;;;22.33;;
35276;SDS011;21401;50.878;8.050;2022-11-18T19:35:23;34.17;;;23.45;;
35276;SDS011;21401;50.878;8.050;2022-11-18T19:37:50;35.92;;;24.15;;
35276;SDS011;21401;50.878;8.050;2022-11-18T19:40:15;43.00;;;25.67;;
35276;SDS011;21401;50.878;8.050;2022-11-18T19:42:42;51.70;;;29.50;;
35276;SDS011;21401;50.878;8.050;2022-11-18T19:45:08;45.40;;;26.27;;
35276;SDS011;21401;50.878;8.050;2022-11-18T19:47:35;45.47;;;28.00;;
35276;SDS011;21401;50.878;8.050;2022-11-18T19:50:04;54.03;;;30.52;;
35276;SDS011;21401;50.878;8.050;2022-11-18T19:52:35;54.53;;;30.92;;
35276;SDS011;21401;50.878;8.050;2022-11-18T19:55:02;55.55;;;31.70;;
35276;SDS011;21401;50.878;8.050;2022-11-18T19:57:28;38.40;;;25.38;;
35276;SDS011;21401;50.878;8.050;2022-11-18T19:59:56;34.53;;;21.67;;
35276;SDS011;21401;50.878;8.050;2022-11-18T20:02:21;35.35;;;22.08;;
35276;SDS011;21401;50.878;8.050;2022-11-18T20:04:47;32.22;;;19.45;;
35276;SDS011;21401;50.878;8.050;2022-11-18T20:07:31;23.58;;;14.70;;
35276;SDS011;21401;50.878;8.050;2022-11-18T20:09:59;25.98;;;15.48;;
35276;SDS011;21401;50.878;8.050;2022-11-18T20:12:27;21.15;;;14.85;;
35276;SDS011;21401;50.878;8.050;2022-11-18T20:14:52;24.02;;;14.75;;
35276;SDS011;21401;50.878;8.050;2022-11-18T20:17:18;25.48;;;13.95;;
35276;SDS011;21401;50.878;8.050;2022-11-18T20:19:43;22.80;;;12.85;;
35276;SDS011;21401;50.878;8.050;2022-11-18T20:22:09;27.30;;;15.65;;
35276;SDS011;21401;50.878;8.050;2022-11-18T20:24:37;25.00;;;16.63;;
35276;SDS011;21401;50.878;8.050;2022-11-18T20:27:02;26.88;;;16.45;;
35276;SDS011;21401;50.878;8.050;2022-11-18T20:29:28;25.38;;;15.50;;
35276;SDS011;21401;50.878;8.050;2022-11-18T20:31:54;19.90;;;12.43;;
35276;SDS011;21401;50.878;8.050;2022-11-18T20:34:19;15.05;;;9.88;;
35276;SDS011;21401;50.878;8.050;2022-11-18T20:36:46;13.95;;;8.38;;